DAUE

El Golea Airport

Algeria
METAR DAUE 211900Z 32004KT CAVOK 16/04 Q1025
Observed Flight Rules
Jan-21 @ 19:00 UTC (an hour ago) Visual Flight Rules
Wind Visibility Clouds
320° at 4 knots 10,000+ meters
  • Clear skies
Temperatures Readings
Current 16°C / 61°F
Dewpoint 4°C / 39°F
Humidity 45%
Altimeter 30.27" Hg
Pressure 1025 hPa
Elevation 397
METAR DAUE 211900Z 32004KT CAVOK 16/04 Q1025
Observed Flight Rules
Jan-21 @ 19:00 UTC
(an hour ago)
VFR
Wind Visibility
320° at 4 knots 10,000+ meters
Clouds
  • Clear skies
Temperature Dewpoint
16°C / 61°F 4°C / 39°F
Humidity Altimeter Pressure
45% 30.27" Hg 1025 hPa